sensor_id;sensor_type;location;lat;lon;timestamp;temperature;humidity
4922;DHT22;16625;53.624;10.106;2022-07-18T00:00:14;14.70;99.90
4922;DHT22;16625;53.624;10.106;2022-07-18T00:02:41;13.70;99.90
4922;DHT22;16625;53.624;10.106;2022-07-18T00:05:12;13.70;99.90
4922;DHT22;16625;53.624;10.106;2022-07-18T00:07:39;14.50;99.90
4922;DHT22;16625;53.624;10.106;2022-07-18T00:10:07;13.70;99.90
4922;DHT22;16625;53.624;10.106;2022-07-18T00:12:35;13.60;99.90
4922;DHT22;16625;53.624;10.106;2022-07-18T00:15:03;13.70;99.90
4922;DHT22;16625;53.624;10.106;2022-07-18T00:17:30;13.60;99.90
4922;DHT22;16625;53.624;10.106;2022-07-18T00:19:57;13.70;99.90
4922;DHT22;16625;53.624;10.106;2022-07-18T00:22:25;13.60;99.90
4922;DHT22;16625;53.624;10.106;2022-07-18T00:24:54;14.30;99.90
4922;DHT22;16625;53.624;10.106;2022-07-18T00:27:20;13.70;99.90
4922;DHT22;16625;53.624;10.106;2022-07-18T00:29:47;13.70;99.90
4922;DHT22;16625;53.624;10.106;2022-07-18T00:32:14;13.70;99.90
4922;DHT22;16625;53.624;10.106;2022-07-18T00:34:41;13.70;99.90
4922;DHT22;16625;53.624;10.106;2022-07-18T00:37:08;13.80;99.90
4922;DHT22;16625;53.624;10.106;2022-07-18T00:39:37;13.90;99.90
4922;DHT22;16625;53.624;10.106;2022-07-18T00:42:03;13.70;99.90
4922;DHT22;16625;53.624;10.106;2022-07-18T00:44:30;13.80;99.90
4922;DHT22;16625;53.624;10.106;2022-07-18T00:47:00;13.70;99.90
4922;DHT22;16625;53.624;10.106;2022-07-18T00:49:27;13.70;99.90
4922;DHT22;16625;53.624;10.106;2022-07-18T00:51:54;13.70;99.90
4922;DHT22;16625;53.624;10.106;2022-07-18T00:54:21;14.00;99.90
4922;DHT22;16625;53.624;10.106;2022-07-18T00:56:50;13.70;99.90
4922;DHT22;16625;53.624;10.106;2022-07-18T00:59:17;14.10;99.90
4922;DHT22;16625;53.624;10.106;2022-07-18T01:01:45;13.60;99.90
4922;DHT22;16625;53.624;10.106;2022-07-18T01:04:16;14.10;99.90
4922;DHT22;16625;53.624;10.106;2022-07-18T01:06:43;13.60;99.90
4922;DHT22;16625;53.624;10.106;2022-07-18T01:09:10;13.50;99.90
4922;DHT22;16625;53.624;10.106;2022-07-18T01:11:37;13.90;99.90
4922;DHT22;16625;53.624;10.106;2022-07-18T01:14:06;13.50;99.90
4922;DHT22;16625;53.624;10.106;2022-07-18T01:16:34;13.40;99.90
4922;DHT22;16625;53.624;10.106;2022-07-18T01:19:02;13.50;99.90
4922;DHT22;16625;53.624;10.106;2022-07-18T01:21:30;13.60;99.90
4922;DHT22;16625;53.624;10.106;2022-07-18T01:23:57;13.60;99.90
4922;DHT22;16625;53.624;10.106;2022-07-18T01:26:25;13.10;99.90
4922;DHT22;16625;53.624;10.106;2022-07-18T01:28:51;13.10;99.90
4922;DHT22;16625;53.624;10.106;2022-07-18T01:31:18;13.10;99.90
4922;DHT22;16625;53.624;10.106;2022-07-18T01:33:45;13.10;99.90
4922;DHT22;16625;53.624;10.106;2022-07-18T01:36:12;13.00;99.90
4922;DHT22;16625;53.624;10.106;2022-07-18T01:38:40;13.00;99.90
4922;DHT22;16625;53.624;10.106;2022-07-18T01:41:07;13.50;99.90
4922;DHT22;16625;53.624;10.106;2022-07-18T01:43:34;13.30;99.90
4922;DHT22;16625;53.624;10.106;2022-07-18T01:46:03;13.00;99.90
4922;DHT22;16625;53.624;10.106;2022-07-18T01:48:30;13.00;99.90
4922;DHT22;16625;53.624;10.106;2022-07-18T01:50:57;13.00;99.90
4922;DHT22;16625;53.624;10.106;2022-07-18T01:53:24;13.60;99.90
4922;DHT22;16625;53.624;10.106;2022-07-18T01:55:58;13.40;99.90
4922;DHT22;16625;53.624;10.106;2022-07-18T01:58:25;12.90;99.90
4922;DHT22;16625;53.624;10.106;2022-07-18T02:00:52;12.90;99.90
4922;DHT22;16625;53.624;10.106;2022-07-18T02:03:19;13.00;99.90
4922;DHT22;16625;53.624;10.106;2022-07-18T02:05:45;13.00;99.90
4922;DHT22;16625;53.624;10.106;2022-07-18T02:08:13;13.10;99.90
4922;DHT22;16625;53.624;10.106;2022-07-18T02:10:41;13.00;99.90
4922;DHT22;16625;53.624;10.106;2022-07-18T02:13:10;13.00;99.90
4922;DHT22;16625;53.624;10.106;2022-07-18T02:15:37;12.90;99.90
4922;DHT22;16625;53.624;10.106;2022-07-18T02:18:04;13.10;99.90
4922;DHT22;16625;53.624;10.106;2022-07-18T02:20:30;13.60;99.90
4922;DHT22;16625;53.624;10.106;2022-07-18T02:22:58;13.90;99.90
4922;DHT22;16625;53.624;10.106;2022-07-18T02:25:25;14.50;99.90
4922;DHT22;16625;53.624;10.106;2022-07-18T02:27:52;13.10;99.90
4922;DHT22;16625;53.624;10.106;2022-07-18T02:30:21;13.10;99.90
4922;DHT22;16625;53.624;10.106;2022-07-18T02:32:48;13.80;99.90
4922;DHT22;16625;53.624;10.106;2022-07-18T02:35:15;13.20;99.90
4922;DHT22;16625;53.624;10.106;2022-07-18T02:37:42;13.20;99.90
4922;DHT22;16625;53.624;10.106;2022-07-18T02:40:10;13.30;99.90
4922;DHT22;16625;53.624;10.106;2022-07-18T02:42:38;13.30;99.90
4922;DHT22;16625;53.624;10.106;2022-07-18T02:45:06;13.30;99.90
4922;DHT22;16625;53.624;10.106;2022-07-18T02:47:35;13.30;99.90
4922;DHT22;16625;53.624;10.106;2022-07-18T02:50:03;13.30;99.90
4922;DHT22;16625;53.624;10.106;2022-07-18T02:52:30;13.30;99.90
4922;DHT22;16625;53.624;10.106;2022-07-18T02:54:57;13.30;99.90
4922;DHT22;16625;53.624;10.106;2022-07-18T02:57:26;13.70;99.90
4922;DHT22;16625;53.624;10.106;2022-07-18T02:59:53;14.10;99.90
4922;DHT22;16625;53.624;10.106;2022-07-18T03:02:20;13.20;99.90
4922;DHT22;16625;53.624;10.106;2022-07-18T03:04:48;14.00;99.90
4922;DHT22;16625;53.624;10.106;2022-07-18T03:07:15;13.20;99.90
4922;DHT22;16625;53.624;10.106;2022-07-18T03:09:50;13.60;99.90
4922;DHT22;16625;53.624;10.106;2022-07-18T03:12:17;13.00;99.90
4922;DHT22;16625;53.624;10.106;2022-07-18T03:14:44;13.60;99.90
4922;DHT22;16625;53.624;10.106;2022-07-18T03:17:11;13.00;99.90
4922;DHT22;16625;53.624;10.106;2022-07-18T03:19:38;13.40;99.90
4922;DHT22;16625;53.624;10.106;2022-07-18T03:22:06;13.50;99.90
4922;DHT22;16625;53.624;10.106;2022-07-18T03:24:33;13.10;99.90
4922;DHT22;16625;53.624;10.106;2022-07-18T03:27:00;13.00;99.90
4922;DHT22;16625;53.624;10.106;2022-07-18T03:29:27;13.10;99.90
4922;DHT22;16625;53.624;10.106;2022-07-18T03:31:54;13.10;99.90
4922;DHT22;16625;53.624;10.106;2022-07-18T03:34:20;13.10;99.90
4922;DHT22;16625;53.624;10.106;2022-07-18T03:36:47;13.20;99.90
4922;DHT22;16625;53.624;10.106;2022-07-18T03:39:16;13.20;99.90
4922;DHT22;16625;53.624;10.106;2022-07-18T03:41:43;13.30;99.90
4922;DHT22;16625;53.624;10.106;2022-07-18T03:44:10;13.40;99.90
4922;DHT22;16625;53.624;10.106;2022-07-18T03:46:37;13.50;99.90
4922;DHT22;16625;53.624;10.106;2022-07-18T03:49:04;13.40;99.90
4922;DHT22;16625;53.624;10.106;2022-07-18T03:51:31;13.40;99.90
4922;DHT22;16625;53.624;10.106;2022-07-18T03:53:57;13.40;99.90
4922;DHT22;16625;53.624;10.106;2022-07-18T03:56:26;13.50;99.90
4922;DHT22;16625;53.624;10.106;2022-07-18T03:58:53;13.60;99.90
4922;DHT22;16625;53.624;10.106;2022-07-18T04:01:19;14.30;99.90
4922;DHT22;16625;53.624;10.106;2022-07-18T04:03:46;14.50;99.90
4922;DHT22;16625;53.624;10.106;2022-07-18T04:06:13;13.70;99.90
4922;DHT22;16625;53.624;10.106;2022-07-18T04:09:09;14.20;99.90
4922;DHT22;16625;53.624;10.106;2022-07-18T04:11:37;13.90;99.90
4922;DHT22;16625;53.624;10.106;2022-07-18T04:14:04;14.00;99.90
4922;DHT22;16625;53.624;10.106;2022-07-18T04:16:31;14.10;99.90
4922;DHT22;16625;53.624;10.106;2022-07-18T04:18:58;14.10;99.90
4922;DHT22;16625;53.624;10.106;2022-07-18T04:21:25;14.20;99.90
4922;DHT22;16625;53.624;10.106;2022-07-18T04:23:51;14.30;99.90
4922;DHT22;16625;53.624;10.106;2022-07-18T04:26:21;14.80;99.90
4922;DHT22;16625;53.624;10.106;2022-07-18T04:28:50;14.80;99.90
4922;DHT22;16625;53.624;10.106;2022-07-18T04:31:16;15.30;99.90
4922;DHT22;16625;53.624;10.106;2022-07-18T04:33:44;14.40;99.90
4922;DHT22;16625;53.624;10.106;2022-07-18T04:36:11;15.30;99.90
4922;DHT22;16625;53.624;10.106;2022-07-18T04:38:40;14.30;99.90
4922;DHT22;16625;53.624;10.106;2022-07-18T04:41:09;14.30;99.90
4922;DHT22;16625;53.624;10.106;2022-07-18T04:43:36;14.30;99.90
4922;DHT22;16625;53.624;10.106;2022-07-18T04:46:04;15.20;99.90
4922;DHT22;16625;53.624;10.106;2022-07-18T04:48:31;14.30;99.90
4922;DHT22;16625;53.624;10.106;2022-07-18T04:50:58;14.40;99.90
4922;DHT22;16625;53.624;10.106;2022-07-18T04:53:25;15.20;99.90
4922;DHT22;16625;53.624;10.106;2022-07-18T04:55:52;15.00;99.90
4922;DHT22;16625;53.624;10.106;2022-07-18T04:58:19;15.10;99.90
4922;DHT22;16625;53.624;10.106;2022-07-18T05:00:46;15.10;99.90
4922;DHT22;16625;53.624;10.106;2022-07-18T05:03:15;15.70;99.90
4922;DHT22;16625;53.624;10.106;2022-07-18T05:05:41;15.20;99.90
4922;DHT22;16625;53.624;10.106;2022-07-18T05:08:11;15.30;99.90
4922;DHT22;16625;53.624;10.106;2022-07-18T05:10:39;15.40;99.90
4922;DHT22;16625;53.624;10.106;2022-07-18T05:13:06;15.70;99.90
4922;DHT22;16625;53.624;10.106;2022-07-18T05:15:33;15.70;99.90
4922;DHT22;16625;53.624;10.106;2022-07-18T05:18:00;15.80;99.90
4922;DHT22;16625;53.624;10.106;2022-07-18T05:20:28;15.90;99.90
4922;DHT22;16625;53.624;10.106;2022-07-18T05:22:55;16.00;99.90
4922;DHT22;16625;53.624;10.106;2022-07-18T05:25:22;16.30;99.90
4922;DHT22;16625;53.624;10.106;2022-07-18T05:27:50;16.40;99.90
4922;DHT22;16625;53.624;10.106;2022-07-18T05:30:18;16.30;99.90
4922;DHT22;16625;53.624;10.106;2022-07-18T05:32:45;16.30;99.90
4922;DHT22;16625;53.624;10.106;2022-07-18T05:35:13;16.30;99.90
4922;DHT22;16625;53.624;10.106;2022-07-18T05:37:42;16.30;99.90
4922;DHT22;16625;53.624;10.106;2022-07-18T05:40:11;16.90;99.90
4922;DHT22;16625;53.624;10.106;2022-07-18T05:42:38;16.20;99.90
4922;DHT22;16625;53.624;10.106;2022-07-18T05:45:07;16.30;99.90
4922;DHT22;16625;53.624;10.106;2022-07-18T05:47:34;16.20;99.90
4922;DHT22;16625;53.624;10.106;2022-07-18T05:50:02;16.60;99.90
4922;DHT22;16625;53.624;10.106;2022-07-18T05:52:29;16.20;99.90
4922;DHT22;16625;53.624;10.106;2022-07-18T05:54:57;16.90;99.90
4922;DHT22;16625;53.624;10.106;2022-07-18T05:57:24;16.50;99.90
4922;DHT22;16625;53.624;10.106;2022-07-18T06:00:07;16.60;99.90
4922;DHT22;16625;53.624;10.106;2022-07-18T06:02:35;16.70;99.90
4922;DHT22;16625;53.624;10.106;2022-07-18T06:05:03;16.90;99.90
4922;DHT22;16625;53.624;10.106;2022-07-18T06:07:30;17.00;99.90
4922;DHT22;16625;53.624;10.106;2022-07-18T06:09:58;17.10;99.90
4922;DHT22;16625;53.624;10.106;2022-07-18T06:12:28;17.30;99.90
4922;DHT22;16625;53.624;10.106;2022-07-18T06:14:56;17.50;99.90
4922;DHT22;16625;53.624;10.106;2022-07-18T06:17:23;17.70;99.90
4922;DHT22;16625;53.624;10.106;2022-07-18T06:19:50;17.90;99.90
4922;DHT22;16625;53.624;10.106;2022-07-18T06:22:17;17.90;99.90
4922;DHT22;16625;53.624;10.106;2022-07-18T06:24:44;18.00;65.10
4922;DHT22;16625;53.624;10.106;2022-07-18T06:27:27;18.10;31.30
4922;DHT22;16625;53.624;10.106;2022-07-18T06:29:54;18.10;1.00
4922;DHT22;16625;53.624;10.106;2022-07-18T06:32:22;19.50;1.00
4922;DHT22;16625;53.624;10.106;2022-07-18T06:34:49;18.10;1.00
4922;DHT22;16625;53.624;10.106;2022-07-18T06:37:16;18.60;1.00
4922;DHT22;16625;53.624;10.106;2022-07-18T06:39:43;18.20;1.00
4922;DHT22;16625;53.624;10.106;2022-07-18T06:42:10;18.40;1.00
4922;DHT22;16625;53.624;10.106;2022-07-18T06:44:38;19.20;1.00
4922;DHT22;16625;53.624;10.106;2022-07-18T06:47:05;18.90;1.00
4922;DHT22;16625;53.624;10.106;2022-07-18T06:49:32;18.80;1.00
4922;DHT22;16625;53.624;10.106;2022-07-18T06:51:59;19.00;1.00
4922;DHT22;16625;53.624;10.106;2022-07-18T06:54:26;19.00;99.90
4922;DHT22;16625;53.624;10.106;2022-07-18T06:56:54;19.20;99.90
4922;DHT22;16625;53.624;10.106;2022-07-18T06:59:21;19.20;99.90
4922;DHT22;16625;53.624;10.106;2022-07-18T07:01:49;20.00;1.00
4922;DHT22;16625;53.624;10.106;2022-07-18T07:04:16;19.20;99.90
4922;DHT22;16625;53.624;10.106;2022-07-18T07:06:43;19.20;99.90
4922;DHT22;16625;53.624;10.106;2022-07-18T07:09:10;19.30;99.90
4922;DHT22;16625;53.624;10.106;2022-07-18T07:11:37;19.40;99.90
4922;DHT22;16625;53.624;10.106;2022-07-18T07:14:04;19.60;99.90
4922;DHT22;16625;53.624;10.106;2022-07-18T07:16:31;19.80;1.00
4922;DHT22;16625;53.624;10.106;2022-07-18T07:18:59;19.80;99.90
4922;DHT22;16625;53.624;10.106;2022-07-18T07:21:26;20.00;1.00
4922;DHT22;16625;53.624;10.106;2022-07-18T07:23:53;20.30;99.90
4922;DHT22;16625;53.624;10.106;2022-07-18T07:26:21;20.60;99.90
4922;DHT22;16625;53.624;10.106;2022-07-18T07:28:48;20.70;1.00
4922;DHT22;16625;53.624;10.106;2022-07-18T07:31:15;21.00;1.00
4922;DHT22;16625;53.624;10.106;2022-07-18T07:33:42;21.20;1.00
4922;DHT22;16625;53.624;10.106;2022-07-18T07:36:11;21.40;99.90
4922;DHT22;16625;53.624;10.106;2022-07-18T07:38:38;21.70;99.90
4922;DHT22;16625;53.624;10.106;2022-07-18T07:41:05;22.80;99.90
4922;DHT22;16625;53.624;10.106;2022-07-18T07:43:32;21.60;99.90
4922;DHT22;16625;53.624;10.106;2022-07-18T07:46:02;21.60;99.90
4922;DHT22;16625;53.624;10.106;2022-07-18T07:48:29;21.80;99.90
4922;DHT22;16625;53.624;10.106;2022-07-18T07:50:55;22.30;99.90
4922;DHT22;16625;53.624;10.106;2022-07-18T07:53:24;22.00;33.20
4922;DHT22;16625;53.624;10.106;2022-07-18T07:55:51;22.70;82.70
4922;DHT22;16625;53.624;10.106;2022-07-18T07:58:18;22.60;7.50
4922;DHT22;16625;53.624;10.106;2022-07-18T08:00:45;22.90;1.00
4922;DHT22;16625;53.624;10.106;2022-07-18T08:03:12;24.40;1.00
4922;DHT22;16625;53.624;10.106;2022-07-18T08:05:44;23.10;1.00
4922;DHT22;16625;53.624;10.106;2022-07-18T08:08:36;23.40;1.00
4922;DHT22;16625;53.624;10.106;2022-07-18T08:11:02;22.90;1.00
4922;DHT22;16625;53.624;10.106;2022-07-18T08:13:29;22.80;1.00
4922;DHT22;16625;53.624;10.106;2022-07-18T08:15:56;22.90;1.00
4922;DHT22;16625;53.624;10.106;2022-07-18T08:18:23;23.00;1.00
4922;DHT22;16625;53.624;10.106;2022-07-18T08:20:50;23.20;1.00
4922;DHT22;16625;53.624;10.106;2022-07-18T08:23:17;23.20;1.00
4922;DHT22;16625;53.624;10.106;2022-07-18T08:25:46;24.20;1.00
4922;DHT22;16625;53.624;10.106;2022-07-18T08:31:33;23.70;1.00
4922;DHT22;16625;53.624;10.106;2022-07-18T08:34:01;23.70;1.00
4922;DHT22;16625;53.624;10.106;2022-07-18T08:36:28;24.20;1.00
4922;DHT22;16625;53.624;10.106;2022-07-18T08:38:55;23.80;1.00
4922;DHT22;16625;53.624;10.106;2022-07-18T08:41:24;23.90;1.00
4922;DHT22;16625;53.624;10.106;2022-07-18T08:43:51;24.10;1.00
4922;DHT22;16625;53.624;10.106;2022-07-18T08:46:20;24.30;1.00
4922;DHT22;16625;53.624;10.106;2022-07-18T08:48:47;24.20;1.00
4922;DHT22;16625;53.624;10.106;2022-07-18T08:51:16;24.40;1.00
4922;DHT22;16625;53.624;10.106;2022-07-18T08:53:43;24.60;1.00
4922;DHT22;16625;53.624;10.106;2022-07-18T08:56:12;24.70;1.00
4922;DHT22;16625;53.624;10.106;2022-07-18T08:58:41;25.10;1.00
4922;DHT22;16625;53.624;10.106;2022-07-18T09:01:07;25.10;1.00
4922;DHT22;16625;53.624;10.106;2022-07-18T09:03:34;24.90;1.00
4922;DHT22;16625;53.624;10.106;2022-07-18T09:06:10;24.70;1.00
4922;DHT22;16625;53.624;10.106;2022-07-18T09:08:38;24.70;1.00
4922;DHT22;16625;53.624;10.106;2022-07-18T09:11:09;24.90;1.00
4922;DHT22;16625;53.624;10.106;2022-07-18T09:13:38;24.90;1.00
4922;DHT22;16625;53.624;10.106;2022-07-18T09:16:08;24.70;1.00
4922;DHT22;16625;53.624;10.106;2022-07-18T09:18:37;24.70;1.00
4922;DHT22;16625;53.624;10.106;2022-07-18T09:21:06;25.50;1.00
4922;DHT22;16625;53.624;10.106;2022-07-18T09:23:35;25.20;1.00
4922;DHT22;16625;53.624;10.106;2022-07-18T09:26:03;25.40;1.00
4922;DHT22;16625;53.624;10.106;2022-07-18T09:28:45;25.50;1.00
4922;DHT22;16625;53.624;10.106;2022-07-18T09:31:18;25.50;1.00
4922;DHT22;16625;53.624;10.106;2022-07-18T09:33:51;25.70;1.00
4922;DHT22;16625;53.624;10.106;2022-07-18T09:36:18;24.90;1.00
4922;DHT22;16625;53.624;10.106;2022-07-18T09:38:45;25.00;1.00
4922;DHT22;16625;53.624;10.106;2022-07-18T09:41:12;25.10;1.00
4922;DHT22;16625;53.624;10.106;2022-07-18T09:43:39;25.40;1.00
4922;DHT22;16625;53.624;10.106;2022-07-18T09:46:07;25.50;1.00
4922;DHT22;16625;53.624;10.106;2022-07-18T09:48:35;25.70;1.00
4922;DHT22;16625;53.624;10.106;2022-07-18T09:51:03;25.70;1.00
4922;DHT22;16625;53.624;10.106;2022-07-18T09:53:32;25.80;1.00
4922;DHT22;16625;53.624;10.106;2022-07-18T09:56:01;26.30;1.00
4922;DHT22;16625;53.624;10.106;2022-07-18T09:58:30;26.30;1.00
4922;DHT22;16625;53.624;10.106;2022-07-18T10:00:59;26.50;1.00
4922;DHT22;16625;53.624;10.106;2022-07-18T10:03:27;25.90;1.00
4922;DHT22;16625;53.624;10.106;2022-07-18T10:05:57;26.00;1.00
4922;DHT22;16625;53.624;10.106;2022-07-18T10:08:26;26.20;1.00
4922;DHT22;16625;53.624;10.106;2022-07-18T10:10:55;26.30;1.00
4922;DHT22;16625;53.624;10.106;2022-07-18T10:13:25;26.40;1.00
4922;DHT22;16625;53.624;10.106;2022-07-18T10:15:53;26.30;1.00
4922;DHT22;16625;53.624;10.106;2022-07-18T10:18:21;26.90;1.00
4922;DHT22;16625;53.624;10.106;2022-07-18T10:20:52;26.40;1.00
4922;DHT22;16625;53.624;10.106;2022-07-18T10:23:24;26.30;1.00
4922;DHT22;16625;53.624;10.106;2022-07-18T10:26:10;27.30;1.00
4922;DHT22;16625;53.624;10.106;2022-07-18T10:32:03;26.50;1.00
4922;DHT22;16625;53.624;10.106;2022-07-18T10:34:33;26.70;1.00
4922;DHT22;16625;53.624;10.106;2022-07-18T10:37:10;27.50;1.00
4922;DHT22;16625;53.624;10.106;2022-07-18T10:39:40;27.10;1.00
4922;DHT22;16625;53.624;10.106;2022-07-18T10:42:19;27.80;1.00
4922;DHT22;16625;53.624;10.106;2022-07-18T10:44:49;27.70;1.00
4922;DHT22;16625;53.624;10.106;2022-07-18T10:47:19;27.80;1.00
4922;DHT22;16625;53.624;10.106;2022-07-18T10:50:08;27.90;1.00
4922;DHT22;16625;53.624;10.106;2022-07-18T10:52:58;28.10;1.00
4922;DHT22;16625;53.624;10.106;2022-07-18T10:55:33;28.10;1.00
4922;DHT22;16625;53.624;10.106;2022-07-18T10:58:17;28.60;1.00
4922;DHT22;16625;53.624;10.106;2022-07-18T11:00:48;28.80;1.00
4922;DHT22;16625;53.624;10.106;2022-07-18T11:03:15;29.00;1.00
4922;DHT22;16625;53.624;10.106;2022-07-18T11:05:45;29.40;1.00
4922;DHT22;16625;53.624;10.106;2022-07-18T11:08:19;28.90;1.00
4922;DHT22;16625;53.624;10.106;2022-07-18T11:11:10;28.90;1.00
4922;DHT22;16625;53.624;10.106;2022-07-18T11:13:39;28.80;1.00
4922;DHT22;16625;53.624;10.106;2022-07-18T11:16:10;29.40;1.00
4922;DHT22;16625;53.624;10.106;2022-07-18T11:19:18;28.70;1.00
4922;DHT22;16625;53.624;10.106;2022-07-18T11:21:45;28.50;1.00
4922;DHT22;16625;53.624;10.106;2022-07-18T11:24:13;28.70;1.00
4922;DHT22;16625;53.624;10.106;2022-07-18T11:26:45;27.90;1.00
4922;DHT22;16625;53.624;10.106;2022-07-18T11:29:14;29.30;1.00
4922;DHT22;16625;53.624;10.106;2022-07-18T11:31:45;29.80;1.00
4922;DHT22;16625;53.624;10.106;2022-07-18T11:34:12;29.20;1.00
4922;DHT22;16625;53.624;10.106;2022-07-18T11:36:44;29.00;1.00
4922;DHT22;16625;53.624;10.106;2022-07-18T11:39:12;29.10;1.00
4922;DHT22;16625;53.624;10.106;2022-07-18T11:42:01;28.90;1.00
4922;DHT22;16625;53.624;10.106;2022-07-18T11:44:29;29.00;1.00
4922;DHT22;16625;53.624;10.106;2022-07-18T11:47:06;28.90;1.00
4922;DHT22;16625;53.624;10.106;2022-07-18T11:49:33;29.00;1.00
4922;DHT22;16625;53.624;10.106;2022-07-18T11:52:01;30.20;1.00
4922;DHT22;16625;53.624;10.106;2022-07-18T11:54:28;28.60;1.00
4922;DHT22;16625;53.624;10.106;2022-07-18T11:56:58;28.60;1.00
4922;DHT22;16625;53.624;10.106;2022-07-18T11:59:39;28.70;1.00
4922;DHT22;16625;53.624;10.106;2022-07-18T12:02:07;28.80;1.00
4922;DHT22;16625;53.624;10.106;2022-07-18T12:04:34;29.00;1.00
4922;DHT22;16625;53.624;10.106;2022-07-18T12:07:17;28.90;1.00
4922;DHT22;16625;53.624;10.106;2022-07-18T12:09:45;29.10;1.00
4922;DHT22;16625;53.624;10.106;2022-07-18T12:12:13;29.10;1.00
4922;DHT22;16625;53.624;10.106;2022-07-18T12:14:42;29.30;1.00
4922;DHT22;16625;53.624;10.106;2022-07-18T12:17:09;29.50;1.00
4922;DHT22;16625;53.624;10.106;2022-07-18T12:19:37;29.30;1.00
4922;DHT22;16625;53.624;10.106;2022-07-18T12:22:06;29.60;1.00
4922;DHT22;16625;53.624;10.106;2022-07-18T12:24:35;29.30;1.00
4922;DHT22;16625;53.624;10.106;2022-07-18T12:27:20;29.30;1.00
4922;DHT22;16625;53.624;10.106;2022-07-18T12:30:09;29.20;1.00
4922;DHT22;16625;53.624;10.106;2022-07-18T12:32:40;29.10;1.00
4922;DHT22;16625;53.624;10.106;2022-07-18T12:35:09;29.10;1.00
4922;DHT22;16625;53.624;10.106;2022-07-18T12:37:37;29.70;1.00
4922;DHT22;16625;53.624;10.106;2022-07-18T12:40:06;29.10;1.00
4922;DHT22;16625;53.624;10.106;2022-07-18T12:42:35;29.20;1.00
4922;DHT22;16625;53.624;10.106;2022-07-18T12:45:05;29.70;1.00
4922;DHT22;16625;53.624;10.106;2022-07-18T12:47:34;29.80;1.00
4922;DHT22;16625;53.624;10.106;2022-07-18T12:50:02;30.00;1.00
4922;DHT22;16625;53.624;10.106;2022-07-18T12:52:29;30.30;1.00
4922;DHT22;16625;53.624;10.106;2022-07-18T12:54:59;30.30;1.00
4922;DHT22;16625;53.624;10.106;2022-07-18T12:57:26;30.40;1.00
4922;DHT22;16625;53.624;10.106;2022-07-18T12:59:53;30.70;1.00
4922;DHT22;16625;53.624;10.106;2022-07-18T13:02:20;30.90;1.00
4922;DHT22;16625;53.624;10.106;2022-07-18T13:04:48;31.10;1.00
4922;DHT22;16625;53.624;10.106;2022-07-18T13:07:15;30.80;1.00
4922;DHT22;16625;53.624;10.106;2022-07-18T13:09:42;31.40;1.00
4922;DHT22;16625;53.624;10.106;2022-07-18T13:12:09;30.80;1.00
4922;DHT22;16625;53.624;10.106;2022-07-18T13:15:07;30.40;1.00
4922;DHT22;16625;53.624;10.106;2022-07-18T13:17:34;30.50;1.00
4922;DHT22;16625;53.624;10.106;2022-07-18T13:20:02;30.40;1.00
4922;DHT22;16625;53.624;10.106;2022-07-18T13:22:31;30.60;1.00
4922;DHT22;16625;53.624;10.106;2022-07-18T13:25:04;30.90;1.00
4922;DHT22;16625;53.624;10.106;2022-07-18T13:27:31;30.40;1.00
4922;DHT22;16625;53.624;10.106;2022-07-18T13:29:58;30.90;1.00
4922;DHT22;16625;53.624;10.106;2022-07-18T13:32:26;30.50;99.90
4922;DHT22;16625;53.624;10.106;2022-07-18T13:34:53;30.10;99.90
4922;DHT22;16625;53.624;10.106;2022-07-18T13:37:21;30.80;99.90
4922;DHT22;16625;53.624;10.106;2022-07-18T13:43:12;30.10;1.00
4922;DHT22;16625;53.624;10.106;2022-07-18T13:45:39;30.50;1.00
4922;DHT22;16625;53.624;10.106;2022-07-18T13:48:06;30.30;1.00
4922;DHT22;16625;53.624;10.106;2022-07-18T13:50:33;30.50;1.00
4922;DHT22;16625;53.624;10.106;2022-07-18T13:53:01;30.40;99.90
4922;DHT22;16625;53.624;10.106;2022-07-18T13:55:28;31.00;99.90
4922;DHT22;16625;53.624;10.106;2022-07-18T13:57:55;30.30;99.90
4922;DHT22;16625;53.624;10.106;2022-07-18T14:00:22;30.70;99.90
4922;DHT22;16625;53.624;10.106;2022-07-18T14:02:49;30.60;99.90
4922;DHT22;16625;53.624;10.106;2022-07-18T14:05:16;30.30;99.90
4922;DHT22;16625;53.624;10.106;2022-07-18T14:11:07;30.00;99.90
4922;DHT22;16625;53.624;10.106;2022-07-18T14:13:36;30.10;99.90
4922;DHT22;16625;53.624;10.106;2022-07-18T14:16:04;30.10;99.90
4922;DHT22;16625;53.624;10.106;2022-07-18T14:18:31;29.80;99.90
4922;DHT22;16625;53.624;10.106;2022-07-18T14:20:57;30.40;99.90
4922;DHT22;16625;53.624;10.106;2022-07-18T14:23:24;29.60;99.90
4922;DHT22;16625;53.624;10.106;2022-07-18T14:25:51;29.70;99.90
4922;DHT22;16625;53.624;10.106;2022-07-18T14:28:19;30.70;99.90
4922;DHT22;16625;53.624;10.106;2022-07-18T14:30:46;30.60;99.90
4922;DHT22;16625;53.624;10.106;2022-07-18T14:33:14;30.50;99.90
4922;DHT22;16625;53.624;10.106;2022-07-18T14:35:41;29.80;99.90
4922;DHT22;16625;53.624;10.106;2022-07-18T14:38:08;30.00;99.90
4922;DHT22;16625;53.624;10.106;2022-07-18T14:40:35;30.70;99.90
4922;DHT22;16625;53.624;10.106;2022-07-18T14:43:02;31.30;99.90
4922;DHT22;16625;53.624;10.106;2022-07-18T14:45:30;30.70;99.90
4922;DHT22;16625;53.624;10.106;2022-07-18T14:47:58;31.20;99.90
4922;DHT22;16625;53.624;10.106;2022-07-18T14:50:26;31.10;99.90
4922;DHT22;16625;53.624;10.106;2022-07-18T14:59:07;30.90;99.90
4922;DHT22;16625;53.624;10.106;2022-07-18T15:01:35;31.10;99.90
4922;DHT22;16625;53.624;10.106;2022-07-18T15:04:02;31.20;99.90
4922;DHT22;16625;53.624;10.106;2022-07-18T15:06:29;31.00;99.90
4922;DHT22;16625;53.624;10.106;2022-07-18T15:08:56;30.40;99.90
4922;DHT22;16625;53.624;10.106;2022-07-18T15:11:23;29.70;99.90
4922;DHT22;16625;53.624;10.106;2022-07-18T15:13:51;29.80;99.90
4922;DHT22;16625;53.624;10.106;2022-07-18T15:16:18;29.50;99.90
4922;DHT22;16625;53.624;10.106;2022-07-18T15:18:46;30.20;99.90
4922;DHT22;16625;53.624;10.106;2022-07-18T15:21:29;29.50;99.90
4922;DHT22;16625;53.624;10.106;2022-07-18T15:23:56;29.70;99.90
4922;DHT22;16625;53.624;10.106;2022-07-18T15:26:23;29.70;99.90
4922;DHT22;16625;53.624;10.106;2022-07-18T15:28:50;29.80;99.90
4922;DHT22;16625;53.624;10.106;2022-07-18T15:31:17;29.60;99.90
4922;DHT22;16625;53.624;10.106;2022-07-18T15:33:45;29.60;99.90
4922;DHT22;16625;53.624;10.106;2022-07-18T15:36:12;29.20;99.90
4922;DHT22;16625;53.624;10.106;2022-07-18T15:38:39;29.20;99.90
4922;DHT22;16625;53.624;10.106;2022-07-18T15:48:05;29.10;99.90
4922;DHT22;16625;53.624;10.106;2022-07-18T15:50:33;29.30;99.90
4922;DHT22;16625;53.624;10.106;2022-07-18T15:53:00;29.30;99.90
4922;DHT22;16625;53.624;10.106;2022-07-18T15:55:27;29.40;99.90
4922;DHT22;16625;53.624;10.106;2022-07-18T15:57:55;29.50;99.90
4922;DHT22;16625;53.624;10.106;2022-07-18T16:00:22;30.10;99.90
4922;DHT22;16625;53.624;10.106;2022-07-18T16:02:52;29.60;99.90
4922;DHT22;16625;53.624;10.106;2022-07-18T16:05:19;29.80;99.90
4922;DHT22;16625;53.624;10.106;2022-07-18T16:07:48;30.60;99.90
4922;DHT22;16625;53.624;10.106;2022-07-18T16:10:15;30.40;99.90
4922;DHT22;16625;53.624;10.106;2022-07-18T16:12:42;30.50;99.90